LHPP/PEV METAR and TAF weather

Enter ICAO airport designator
Station Type Date Time Source
LHPP METAR 2021/04/13 17:45 UTC NOAA

LHPP 131745Z 31011KT 8000 BKN006 OVC033 02/01 Q1017 RERA


Station Type Date Time Source
LHPP Decoded METAR 2021/04/13 17:45 UTC NOAA

Pecs / Pogany, Hungary (LHPP) 46-06N 018-14E 203M
Apr 13, 2021 - 01:45 PM EDT / 2021.04.13 1745 UTC
Wind: from the NW (310 degrees) at 13 MPH (11 KT):0
Visibility: 4 mile(s):0
Sky conditions: overcast
Temperature: 35 F (2 C)
Windchill: 26 F (-3 C):1
Dew Point: 33 F (1 C)
Relative Humidity: 93%
Pressure (altimeter): 30.03 in. Hg (1017 hPa)
ob: LHPP 131745Z 31011KT 8000 BKN006 OVC033 02/01 Q1017 RERA
cycle: 18

Station Type Date Time Source
LHPP TAF 2017/08/21 15:50 UTC NOAA

TAF LHPP 211700Z 2115/2214 CNL

Example: see airport list